Impacts TAF Board
For situational awareness. Not to be used for flight planning purposes.
IDs:

KSTL - St Louis/Lambert Int, MO, US

Issued at 1720 UTC 23 Sep 2018
Updated at 1937 UTC 23 Sep 2018
Potential Impact None Slight Moderate High
Time1851Z 23/20Z 23/21Z 23/22Z 23/23Z 24/00Z 24/01Z 24/02Z 24/03Z 24/04Z 24/05Z 24/06Z 24/07Z 24/08Z>>
Type OBS PRVL PRVL PRVL PRVL PRVL PRVL PRVL PRVL PRVL PRVL PRVL PRVL PRVL
VIS 10 >6 >6 >6 >6 >6 >6 >6 >6 >6 >6 >6 >6 >6
CIG -- -- -- -- -- 90 90 90 90 90 90 90 15 15
Cover SCT FEW FEW FEW FEW BKN BKN BKN BKN BKN BKN BKN BKN BKN
FltCat VFR VFR VFR VFR VFR VFR VFR VFR VFR VFR VFR VFR MVFR MVFR
WX -- -- -- -- -- -- -- -- -- -- -- -- -- --
WDir 30 60 60 60 60 90 90 90 90 90 90 90 VRB VRB
WSpd 6 7 7 7 7 6 6 6 6 6 6 6 4 4
WGst -- -- -- -- -- -- -- -- -- -- -- -- -- --
Raw TAF
KSTL 231720Z 2318/2424 06007KT P6SM FEW200
  FM240000 09006KT P6SM BKN090
  FM240700 VRB04KT P6SM BKN015
  FM242000 VRB04KT P6SM BKN025


Raw METAR
KSTL 231851Z 03006KT 10SM FEW040 SCT250 25/14 A3007 RMK AO2 SLP175 T02500139
KSTL 231751Z 09009KT 10SM FEW040 SCT250 24/14 A3009 RMK AO2 SLP185 T02390139 10239 20133 58010
KSTL 231651Z VRB05KT 10SM FEW035 FEW045 SCT250 23/14 A3011 RMK AO2 SLP191 T02280139

METAR Board
Radar Display
Forecast Discussion
For situational awareness. Not to be used for flight planning purposes.